sensor_id;sensor_type;location;lat;lon;timestamp;pressure;altitude;pressure_sealevel;temperature;humidity
15260;BME280;34462;51.368;12.364;2023-04-06T00:00:07;19297.66;;;-141.84;59.97
15260;BME280;34462;51.368;12.364;2023-04-06T00:02:36;19299.69;;;-141.84;60.02
15260;BME280;34462;51.368;12.364;2023-04-06T00:05:05;19320.00;;;-141.84;59.99
15260;BME280;34462;51.368;12.364;2023-04-06T00:07:34;19289.53;;;-141.84;59.86
15260;BME280;34462;51.368;12.364;2023-04-06T00:10:03;19275.31;;;-141.84;59.88
15260;BME280;34462;51.368;12.364;2023-04-06T00:12:32;19324.06;;;-141.84;59.67
15260;BME280;34462;51.368;12.364;2023-04-06T00:15:00;19317.97;;;-141.84;59.95
15260;BME280;34462;51.368;12.364;2023-04-06T00:17:31;19336.25;;;-141.84;60.47
15260;BME280;34462;51.368;12.364;2023-04-06T00:19:59;19291.56;;;-141.84;59.78
15260;BME280;34462;51.368;12.364;2023-04-06T00:22:28;19309.84;;;-141.84;59.44
15260;BME280;34462;51.368;12.364;2023-04-06T00:24:56;19305.78;;;-141.84;59.88
15260;BME280;34462;51.368;12.364;2023-04-06T00:27:24;19303.75;;;-141.84;60.16
15260;BME280;34462;51.368;12.364;2023-04-06T00:29:53;19301.72;;;-141.84;59.79
15260;BME280;34462;51.368;12.364;2023-04-06T00:32:21;19291.56;;;-141.84;59.81
15260;BME280;34462;51.368;12.364;2023-04-06T00:34:51;19303.75;;;-141.84;59.94
15260;BME280;34462;51.368;12.364;2023-04-06T00:37:19;19291.56;;;-141.84;60.04
15260;BME280;34462;51.368;12.364;2023-04-06T00:39:47;19301.72;;;-141.84;60.33
15260;BME280;34462;51.368;12.364;2023-04-06T00:42:15;19315.94;;;-141.84;60.41
15260;BME280;34462;51.368;12.364;2023-04-06T00:44:45;19261.06;;;-141.84;60.75
15260;BME280;34462;51.368;12.364;2023-04-06T00:47:13;19293.59;;;-141.84;60.36
15260;BME280;34462;51.368;12.364;2023-04-06T00:49:41;19303.75;;;-141.84;60.14
15260;BME280;34462;51.368;12.364;2023-04-06T00:52:11;19273.28;;;-141.84;60.02
15260;BME280;34462;51.368;12.364;2023-04-06T00:54:39;19277.34;;;-141.84;59.43
15260;BME280;34462;51.368;12.364;2023-04-06T00:57:07;19273.28;;;-141.84;59.80
15260;BME280;34462;51.368;12.364;2023-04-06T00:59:36;19315.94;;;-141.84;59.91
15260;BME280;34462;51.368;12.364;2023-04-06T01:02:05;19287.50;;;-141.84;60.38
15260;BME280;34462;51.368;12.364;2023-04-06T01:04:34;19273.28;;;-141.84;60.31
15260;BME280;34462;51.368;12.364;2023-04-06T01:07:02;19277.34;;;-141.84;60.56
15260;BME280;34462;51.368;12.364;2023-04-06T01:09:32;19254.97;;;-141.84;60.63
15260;BME280;34462;51.368;12.364;2023-04-06T01:12:01;19279.38;;;-141.84;60.75
15260;BME280;34462;51.368;12.364;2023-04-06T01:14:30;19301.72;;;-141.84;60.68
15260;BME280;34462;51.368;12.364;2023-04-06T01:16:59;19285.47;;;-141.84;60.45
15260;BME280;34462;51.368;12.364;2023-04-06T01:19:28;19293.59;;;-141.84;60.50
15260;BME280;34462;51.368;12.364;2023-04-06T01:21:56;19275.31;;;-141.84;60.76
15260;BME280;34462;51.368;12.364;2023-04-06T01:24:26;19305.78;;;-141.84;61.01
15260;BME280;34462;51.368;12.364;2023-04-06T01:26:54;19275.31;;;-141.84;61.35
15260;BME280;34462;51.368;12.364;2023-04-06T01:29:23;19277.34;;;-141.84;61.54
15260;BME280;34462;51.368;12.364;2023-04-06T01:31:51;19291.56;;;-141.84;61.42
15260;BME280;34462;51.368;12.364;2023-04-06T01:34:20;19283.44;;;-141.84;61.32
15260;BME280;34462;51.368;12.364;2023-04-06T01:36:48;19299.69;;;-141.84;61.19
15260;BME280;34462;51.368;12.364;2023-04-06T01:39:17;19279.38;;;-141.84;61.17
15260;BME280;34462;51.368;12.364;2023-04-06T01:41:46;19277.34;;;-141.84;61.20
15260;BME280;34462;51.368;12.364;2023-04-06T01:44:17;19285.47;;;-141.84;61.13
15260;BME280;34462;51.368;12.364;2023-04-06T01:46:45;19320.00;;;-141.84;60.66
15260;BME280;34462;51.368;12.364;2023-04-06T01:49:14;19248.88;;;-141.84;60.74
15260;BME280;34462;51.368;12.364;2023-04-06T01:51:42;19257.00;;;-141.84;60.66
15260;BME280;34462;51.368;12.364;2023-04-06T01:54:10;19259.03;;;-141.84;60.56
15260;BME280;34462;51.368;12.364;2023-04-06T01:56:39;19293.59;;;-141.84;60.80
15260;BME280;34462;51.368;12.364;2023-04-06T01:59:09;19277.34;;;-141.84;61.17
15260;BME280;34462;51.368;12.364;2023-04-06T02:01:37;19299.69;;;-141.84;61.53
15260;BME280;34462;51.368;12.364;2023-04-06T02:04:06;19285.47;;;-141.84;61.45
15260;BME280;34462;51.368;12.364;2023-04-06T02:06:34;19257.00;;;-141.84;61.48
15260;BME280;34462;51.368;12.364;2023-04-06T02:09:02;19265.13;;;-141.84;61.08
15260;BME280;34462;51.368;12.364;2023-04-06T02:11:30;19275.31;;;-141.84;61.71
15260;BME280;34462;51.368;12.364;2023-04-06T02:13:59;19277.34;;;-141.84;61.57
15260;BME280;34462;51.368;12.364;2023-04-06T02:16:29;19271.25;;;-141.84;61.46
15260;BME280;34462;51.368;12.364;2023-04-06T02:18:57;19244.81;;;-141.84;61.51
15260;BME280;34462;51.368;12.364;2023-04-06T02:21:26;19289.53;;;-141.84;61.43
15260;BME280;34462;51.368;12.364;2023-04-06T02:23:54;19275.31;;;-141.84;61.85
15260;BME280;34462;51.368;12.364;2023-04-06T02:26:22;19281.41;;;-141.84;61.43
15260;BME280;34462;51.368;12.364;2023-04-06T02:28:50;19265.13;;;-141.84;61.55
15260;BME280;34462;51.368;12.364;2023-04-06T02:31:19;19259.03;;;-141.84;61.77
15260;BME280;34462;51.368;12.364;2023-04-06T02:33:49;19322.03;;;-141.84;61.53
15260;BME280;34462;51.368;12.364;2023-04-06T02:36:17;19257.00;;;-141.84;61.71
15260;BME280;34462;51.368;12.364;2023-04-06T02:38:45;19261.06;;;-141.84;61.90
15260;BME280;34462;51.368;12.364;2023-04-06T02:41:13;19301.72;;;-141.84;61.25
15260;BME280;34462;51.368;12.364;2023-04-06T02:43:42;19287.50;;;-141.84;61.47
15260;BME280;34462;51.368;12.364;2023-04-06T02:46:10;19257.00;;;-141.84;61.78
15260;BME280;34462;51.368;12.364;2023-04-06T02:48:38;19295.63;;;-141.84;61.84
15260;BME280;34462;51.368;12.364;2023-04-06T02:51:08;19275.31;;;-141.84;61.97
15260;BME280;34462;51.368;12.364;2023-04-06T02:53:36;19259.03;;;-141.84;61.85
15260;BME280;34462;51.368;12.364;2023-04-06T02:56:05;19263.09;;;-141.84;62.19
15260;BME280;34462;51.368;12.364;2023-04-06T02:58:34;19236.69;;;-141.84;62.63
15260;BME280;34462;51.368;12.364;2023-04-06T03:01:02;19200.13;;;-141.84;62.77
15260;BME280;34462;51.368;12.364;2023-04-06T03:03:31;19279.38;;;-141.84;62.67
15260;BME280;34462;51.368;12.364;2023-04-06T03:05:59;19234.66;;;-141.84;63.12
15260;BME280;34462;51.368;12.364;2023-04-06T03:08:29;19244.81;;;-141.84;63.15
15260;BME280;34462;51.368;12.364;2023-04-06T03:10:57;19228.56;;;-141.84;63.20
15260;BME280;34462;51.368;12.364;2023-04-06T03:13:25;19240.75;;;-141.84;63.33
15260;BME280;34462;51.368;12.364;2023-04-06T03:15:54;19265.13;;;-141.84;63.61
15260;BME280;34462;51.368;12.364;2023-04-06T03:18:24;19232.63;;;-141.84;63.95
15260;BME280;34462;51.368;12.364;2023-04-06T03:20:52;19232.63;;;-141.84;64.27
15260;BME280;34462;51.368;12.364;2023-04-06T03:23:21;19226.53;;;-141.84;64.49
15260;BME280;34462;51.368;12.364;2023-04-06T03:25:51;19228.56;;;-141.84;64.86
15260;BME280;34462;51.368;12.364;2023-04-06T03:28:19;19236.69;;;-141.84;65.00
15260;BME280;34462;51.368;12.364;2023-04-06T03:30:48;19212.31;;;-141.84;65.50
15260;BME280;34462;51.368;12.364;2023-04-06T03:33:17;19236.69;;;-141.84;65.86
15260;BME280;34462;51.368;12.364;2023-04-06T03:35:45;19194.03;;;-141.84;66.00
15260;BME280;34462;51.368;12.364;2023-04-06T03:38:14;19204.19;;;-141.84;65.60
15260;BME280;34462;51.368;12.364;2023-04-06T03:40:42;19208.25;;;-141.84;66.08
15260;BME280;34462;51.368;12.364;2023-04-06T03:43:12;19206.22;;;-141.84;65.94
15260;BME280;34462;51.368;12.364;2023-04-06T03:45:40;19185.88;;;-141.84;66.56
15260;BME280;34462;51.368;12.364;2023-04-06T03:48:08;19216.38;;;-141.84;66.66
15260;BME280;34462;51.368;12.364;2023-04-06T03:50:37;19200.13;;;-141.84;67.23
15260;BME280;34462;51.368;12.364;2023-04-06T03:53:05;19187.91;;;-141.84;67.99
15260;BME280;34462;51.368;12.364;2023-04-06T03:55:33;19198.09;;;-141.84;68.00
15260;BME280;34462;51.368;12.364;2023-04-06T03:58:01;19179.78;;;-141.84;68.42
15260;BME280;34462;51.368;12.364;2023-04-06T04:00:31;19149.31;;;-141.84;68.35
15260;BME280;34462;51.368;12.364;2023-04-06T04:02:59;19155.41;;;-141.84;68.47
15260;BME280;34462;51.368;12.364;2023-04-06T04:05:29;19198.09;;;-141.84;69.04
15260;BME280;34462;51.368;12.364;2023-04-06T04:07:57;19179.78;;;-141.84;68.56
15260;BME280;34462;51.368;12.364;2023-04-06T04:10:25;19187.91;;;-141.84;68.93
15260;BME280;34462;51.368;12.364;2023-04-06T04:12:54;19163.53;;;-141.84;69.50
15260;BME280;34462;51.368;12.364;2023-04-06T04:15:22;19175.72;;;-141.84;69.36
15260;BME280;34462;51.368;12.364;2023-04-06T04:17:52;19181.81;;;-141.84;69.78
15260;BME280;34462;51.368;12.364;2023-04-06T04:20:20;19169.63;;;-141.84;69.96
15260;BME280;34462;51.368;12.364;2023-04-06T04:22:48;19143.22;;;-141.84;70.29
15260;BME280;34462;51.368;12.364;2023-04-06T04:25:17;19137.13;;;-141.84;70.47
15260;BME280;34462;51.368;12.364;2023-04-06T04:27:45;19131.03;;;-141.84;70.36
15260;BME280;34462;51.368;12.364;2023-04-06T04:30:13;19159.47;;;-141.84;70.83
15260;BME280;34462;51.368;12.364;2023-04-06T04:32:42;19141.19;;;-141.84;70.66
15260;BME280;34462;51.368;12.364;2023-04-06T04:35:12;19120.88;;;-141.84;70.34
15260;BME280;34462;51.368;12.364;2023-04-06T04:37:41;19143.22;;;-141.84;70.71
15260;BME280;34462;51.368;12.364;2023-04-06T04:40:11;19122.91;;;-141.84;71.06
15260;BME280;34462;51.368;12.364;2023-04-06T04:42:39;19169.63;;;-141.84;71.67
15260;BME280;34462;51.368;12.364;2023-04-06T04:45:08;19118.84;;;-141.84;71.23
15260;BME280;34462;51.368;12.364;2023-04-06T04:47:37;19149.31;;;-141.84;71.43
15260;BME280;34462;51.368;12.364;2023-04-06T04:50:06;19137.13;;;-141.84;71.83
15260;BME280;34462;51.368;12.364;2023-04-06T04:52:37;19141.19;;;-141.84;71.09
15260;BME280;34462;51.368;12.364;2023-04-06T04:55:07;19151.34;;;-141.84;70.93
15260;BME280;34462;51.368;12.364;2023-04-06T04:57:35;19163.53;;;-141.84;71.25
15260;BME280;34462;51.368;12.364;2023-04-06T05:00:04;19108.69;;;-141.84;71.32
15260;BME280;34462;51.368;12.364;2023-04-06T05:02:33;19133.06;;;-141.84;71.53
15260;BME280;34462;51.368;12.364;2023-04-06T05:05:01;19139.16;;;-141.84;71.57
15260;BME280;34462;51.368;12.364;2023-04-06T05:07:30;19161.50;;;-141.84;71.24
15260;BME280;34462;51.368;12.364;2023-04-06T05:09:59;19161.50;;;-141.84;71.10
15260;BME280;34462;51.368;12.364;2023-04-06T05:12:28;19151.34;;;-141.84;71.20
15260;BME280;34462;51.368;12.364;2023-04-06T05:14:56;19163.53;;;-141.84;70.57
15260;BME280;34462;51.368;12.364;2023-04-06T05:17:24;19179.78;;;-141.84;70.32
15260;BME280;34462;51.368;12.364;2023-04-06T05:19:53;19165.56;;;-141.84;70.69
15260;BME280;34462;51.368;12.364;2023-04-06T05:22:22;19124.94;;;-141.84;70.11
15260;BME280;34462;51.368;12.364;2023-04-06T05:24:50;19122.91;;;-141.84;70.21
15260;BME280;34462;51.368;12.364;2023-04-06T05:27:20;19139.16;;;-141.84;70.17
15260;BME280;34462;51.368;12.364;2023-04-06T05:29:48;19163.53;;;-141.84;70.01
15260;BME280;34462;51.368;12.364;2023-04-06T05:32:17;19177.75;;;-141.84;69.21
15260;BME280;34462;51.368;12.364;2023-04-06T05:34:49;19157.44;;;-141.84;69.10
15260;BME280;34462;51.368;12.364;2023-04-06T05:37:17;19167.59;;;-141.84;68.67
15260;BME280;34462;51.368;12.364;2023-04-06T05:39:45;19185.88;;;-141.84;68.41
15260;BME280;34462;51.368;12.364;2023-04-06T05:42:14;19177.75;;;-141.84;68.00
15260;BME280;34462;51.368;12.364;2023-04-06T05:44:43;19212.31;;;-141.84;67.35
15260;BME280;34462;51.368;12.364;2023-04-06T05:47:11;19202.16;;;-141.84;66.79
15260;BME280;34462;51.368;12.364;2023-04-06T05:49:42;19222.47;;;-141.84;65.70
15260;BME280;34462;51.368;12.364;2023-04-06T05:52:10;19210.28;;;-141.84;64.85
15260;BME280;34462;51.368;12.364;2023-04-06T05:54:38;19246.84;;;-141.84;64.32
15260;BME280;34462;51.368;12.364;2023-04-06T05:57:06;19216.38;;;-141.84;64.08
15260;BME280;34462;51.368;12.364;2023-04-06T05:59:35;19236.69;;;-141.84;62.70
15260;BME280;34462;51.368;12.364;2023-04-06T06:02:05;19257.00;;;-141.84;61.92
15260;BME280;34462;51.368;12.364;2023-04-06T06:04:34;19244.81;;;-141.84;62.06
15260;BME280;34462;51.368;12.364;2023-04-06T06:07:02;19285.47;;;-141.84;61.48
15260;BME280;34462;51.368;12.364;2023-04-06T06:09:31;19289.53;;;-141.84;60.49
15260;BME280;34462;51.368;12.364;2023-04-06T06:12:00;19293.59;;;-141.84;60.05
15260;BME280;34462;51.368;12.364;2023-04-06T06:14:28;19326.09;;;-141.84;58.82
15260;BME280;34462;51.368;12.364;2023-04-06T06:16:57;19374.88;;;-141.84;58.04
15260;BME280;34462;51.368;12.364;2023-04-06T06:19:26;19378.94;;;-141.84;57.46
15260;BME280;34462;51.368;12.364;2023-04-06T06:21:55;19409.41;;;-141.84;54.82
15260;BME280;34462;51.368;12.364;2023-04-06T06:24:23;19425.69;;;-141.84;54.60
15260;BME280;34462;51.368;12.364;2023-04-06T06:26:52;19439.91;;;-141.84;54.20
15260;BME280;34462;51.368;12.364;2023-04-06T06:29:20;19462.25;;;-141.84;52.35
15260;BME280;34462;51.368;12.364;2023-04-06T06:31:48;19470.38;;;-141.84;52.78
15260;BME280;34462;51.368;12.364;2023-04-06T06:34:17;19448.03;;;-141.84;52.99
15260;BME280;34462;51.368;12.364;2023-04-06T06:36:46;19474.44;;;-141.84;52.45
15260;BME280;34462;51.368;12.364;2023-04-06T06:39:18;19498.84;;;-141.84;51.66
15260;BME280;34462;51.368;12.364;2023-04-06T06:41:46;19492.75;;;-141.84;51.32
15260;BME280;34462;51.368;12.364;2023-04-06T06:44:14;19500.88;;;-141.84;51.16
15260;BME280;34462;51.368;12.364;2023-04-06T06:46:43;19565.91;;;-141.84;49.81
15260;BME280;34462;51.368;12.364;2023-04-06T06:49:12;19541.50;;;-141.84;49.33
15260;BME280;34462;51.368;12.364;2023-04-06T06:51:41;19506.97;;;-141.84;48.78
15260;BME280;34462;51.368;12.364;2023-04-06T06:54:10;19543.53;;;-141.84;49.11
15260;BME280;34462;51.368;12.364;2023-04-06T06:56:39;19527.28;;;-141.84;49.29
15260;BME280;34462;51.368;12.364;2023-04-06T06:59:07;19543.53;;;-141.84;48.53
15260;BME280;34462;51.368;12.364;2023-04-06T07:01:36;19525.25;;;-141.84;48.41
15260;BME280;34462;51.368;12.364;2023-04-06T07:04:05;19525.25;;;-141.84;48.46
15260;BME280;34462;51.368;12.364;2023-04-06T07:06:35;19529.31;;;-141.84;48.09
15260;BME280;34462;51.368;12.364;2023-04-06T07:09:03;19549.63;;;-141.84;47.79
15260;BME280;34462;51.368;12.364;2023-04-06T07:11:33;19563.88;;;-141.84;47.72
15260;BME280;34462;51.368;12.364;2023-04-06T07:14:01;19569.97;;;-141.84;47.02
15260;BME280;34462;51.368;12.364;2023-04-06T07:16:30;19614.66;;;-141.84;46.05
15260;BME280;34462;51.368;12.364;2023-04-06T07:18:58;19667.50;;;-141.84;45.57
15260;BME280;34462;51.368;12.364;2023-04-06T07:21:26;19673.59;;;-141.84;44.83
15260;BME280;34462;51.368;12.364;2023-04-06T07:23:55;19659.38;;;-141.84;43.97
15260;BME280;34462;51.368;12.364;2023-04-06T07:26:24;19687.84;;;-141.84;43.95
15260;BME280;34462;51.368;12.364;2023-04-06T07:28:54;19722.38;;;-141.84;43.84
15260;BME280;34462;51.368;12.364;2023-04-06T07:31:22;19643.13;;;-141.84;43.94
15260;BME280;34462;51.368;12.364;2023-04-06T07:33:51;19683.78;;;-141.84;43.93
15260;BME280;34462;51.368;12.364;2023-04-06T07:36:20;19673.59;;;-141.84;43.75
15260;BME280;34462;51.368;12.364;2023-04-06T07:38:48;19679.72;;;-141.84;44.14
15260;BME280;34462;51.368;12.364;2023-04-06T07:41:17;19681.75;;;-141.84;43.34
15260;BME280;34462;51.368;12.364;2023-04-06T07:43:45;19687.84;;;-141.84;43.23
15260;BME280;34462;51.368;12.364;2023-04-06T07:46:15;19700.03;;;-141.84;42.72
15260;BME280;34462;51.368;12.364;2023-04-06T07:48:43;19704.09;;;-141.84;42.75
15260;BME280;34462;51.368;12.364;2023-04-06T07:51:11;19722.38;;;-141.84;42.88
15260;BME280;34462;51.368;12.364;2023-04-06T07:53:41;19687.84;;;-141.84;42.66
15260;BME280;34462;51.368;12.364;2023-04-06T07:56:09;19665.47;;;-141.84;43.01
15260;BME280;34462;51.368;12.364;2023-04-06T07:58:37;19683.78;;;-141.84;43.21
15260;BME280;34462;51.368;12.364;2023-04-06T08:01:06;19673.59;;;-141.84;43.18
15260;BME280;34462;51.368;12.364;2023-04-06T08:03:35;19720.34;;;-141.84;43.02
15260;BME280;34462;51.368;12.364;2023-04-06T08:06:05;19695.97;;;-141.84;41.92
15260;BME280;34462;51.368;12.364;2023-04-06T08:08:33;19687.84;;;-141.84;42.40
15260;BME280;34462;51.368;12.364;2023-04-06T08:11:01;19687.84;;;-141.84;42.44
15260;BME280;34462;51.368;12.364;2023-04-06T08:13:30;19730.50;;;-141.84;43.35
15260;BME280;34462;51.368;12.364;2023-04-06T08:15:59;19728.47;;;-141.84;42.32
15260;BME280;34462;51.368;12.364;2023-04-06T08:18:28;19740.69;;;-141.84;41.89
15260;BME280;34462;51.368;12.364;2023-04-06T08:20:58;19732.53;;;-141.84;41.96
15260;BME280;34462;51.368;12.364;2023-04-06T08:23:26;19720.34;;;-141.84;41.71
15260;BME280;34462;51.368;12.364;2023-04-06T08:25:54;19746.78;;;-141.84;41.49
15260;BME280;34462;51.368;12.364;2023-04-06T08:28:23;19761.00;;;-141.84;41.70
15260;BME280;34462;51.368;12.364;2023-04-06T08:30:51;19750.84;;;-141.84;41.83
15260;BME280;34462;51.368;12.364;2023-04-06T08:33:19;19765.06;;;-141.84;41.98
15260;BME280;34462;51.368;12.364;2023-04-06T08:35:48;19756.94;;;-141.84;41.50
15260;BME280;34462;51.368;12.364;2023-04-06T08:38:18;19763.03;;;-141.84;41.21
15260;BME280;34462;51.368;12.364;2023-04-06T08:40:46;19763.03;;;-141.84;41.23
15260;BME280;34462;51.368;12.364;2023-04-06T08:43:19;19765.06;;;-141.84;40.84
15260;BME280;34462;51.368;12.364;2023-04-06T08:45:49;19828.06;;;-141.84;40.82
15260;BME280;34462;51.368;12.364;2023-04-06T08:48:18;19793.50;;;-141.84;40.39
15260;BME280;34462;51.368;12.364;2023-04-06T08:50:47;19828.06;;;-141.84;40.41
15260;BME280;34462;51.368;12.364;2023-04-06T08:53:17;19866.69;;;-141.84;40.29
15260;BME280;34462;51.368;12.364;2023-04-06T08:55:51;19872.78;;;-141.84;40.04
15260;BME280;34462;51.368;12.364;2023-04-06T08:58:19;19887.00;;;-141.84;39.37
15260;BME280;34462;51.368;12.364;2023-04-06T09:01:08;19854.50;;;-141.84;38.58
15260;BME280;34462;51.368;12.364;2023-04-06T09:03:40;19862.63;;;-141.84;39.05
15260;BME280;34462;51.368;12.364;2023-04-06T09:06:09;19858.56;;;-141.84;39.06
15260;BME280;34462;51.368;12.364;2023-04-06T09:08:41;19878.88;;;-141.84;39.79
15260;BME280;34462;51.368;12.364;2023-04-06T09:11:10;19872.78;;;-141.84;39.56
15260;BME280;34462;51.368;12.364;2023-04-06T09:13:47;19830.09;;;-141.84;39.45
15260;BME280;34462;51.368;12.364;2023-04-06T09:16:15;19887.00;;;-141.84;38.03
15260;BME280;34462;51.368;12.364;2023-04-06T09:18:44;19895.13;;;-141.84;36.95
15260;BME280;34462;51.368;12.364;2023-04-06T09:21:16;19923.59;;;-141.84;37.72
15260;BME280;34462;51.368;12.364;2023-04-06T09:23:46;19931.72;;;-141.84;37.84
15260;BME280;34462;51.368;12.364;2023-04-06T09:26:17;19937.81;;;-141.84;38.03
15260;BME280;34462;51.368;12.364;2023-04-06T09:28:47;19962.19;;;-141.84;37.45
15260;BME280;34462;51.368;12.364;2023-04-06T09:31:17;19970.34;;;-141.84;35.60
15260;BME280;34462;51.368;12.364;2023-04-06T09:33:49;19968.31;;;-141.84;35.62
15260;BME280;34462;51.368;12.364;2023-04-06T09:36:19;20023.19;;;-141.84;34.90
15260;BME280;34462;51.368;12.364;2023-04-06T09:38:57;20031.31;;;-141.84;34.39
15260;BME280;34462;51.368;12.364;2023-04-06T09:41:28;20004.88;;;-141.84;34.42
15260;BME280;34462;51.368;12.364;2023-04-06T09:44:04;19986.59;;;-141.84;35.31
15260;BME280;34462;51.368;12.364;2023-04-06T09:46:35;20004.88;;;-141.84;35.23
15260;BME280;34462;51.368;12.364;2023-04-06T09:49:27;20008.94;;;-141.84;33.76
15260;BME280;34462;51.368;12.364;2023-04-06T09:52:00;19952.03;;;-141.84;33.83
15260;BME280;34462;51.368;12.364;2023-04-06T09:54:31;19950.00;;;-141.84;34.80
15260;BME280;34462;51.368;12.364;2023-04-06T09:57:09;19887.00;;;-141.84;35.26
15260;BME280;34462;51.368;12.364;2023-04-06T09:59:48;19907.31;;;-141.84;35.25
15260;BME280;34462;51.368;12.364;2023-04-06T10:02:29;19952.03;;;-141.84;35.19
15260;BME280;34462;51.368;12.364;2023-04-06T10:05:08;20000.81;;;-141.84;33.81
15260;BME280;34462;51.368;12.364;2023-04-06T10:07:40;20021.16;;;-141.84;33.59
15260;BME280;34462;51.368;12.364;2023-04-06T10:10:28;20004.88;;;-141.84;34.25
15260;BME280;34462;51.368;12.364;2023-04-06T10:12:58;20084.16;;;-141.84;33.33
15260;BME280;34462;51.368;12.364;2023-04-06T10:15:28;20096.34;;;-141.84;33.98
15260;BME280;34462;51.368;12.364;2023-04-06T10:17:58;20118.69;;;-141.84;32.72
15260;BME280;34462;51.368;12.364;2023-04-06T10:20:35;20126.84;;;-141.84;32.83
15260;BME280;34462;51.368;12.364;2023-04-06T10:23:10;20118.69;;;-141.84;33.19
15260;BME280;34462;51.368;12.364;2023-04-06T10:25:54;20143.09;;;-141.84;33.43
15260;BME280;34462;51.368;12.364;2023-04-06T10:28:23;20167.47;;;-141.84;33.27
15260;BME280;34462;51.368;12.364;2023-04-06T10:30:58;20175.63;;;-141.84;33.16
15260;BME280;34462;51.368;12.364;2023-04-06T10:33:27;20191.88;;;-141.84;33.12
15260;BME280;34462;51.368;12.364;2023-04-06T10:35:55;20149.19;;;-141.84;33.50
15260;BME280;34462;51.368;12.364;2023-04-06T10:38:33;20082.13;;;-141.84;33.42
15260;BME280;34462;51.368;12.364;2023-04-06T10:41:10;20102.44;;;-141.84;34.02
15260;BME280;34462;51.368;12.364;2023-04-06T10:43:40;20080.09;;;-141.84;34.26
15260;BME280;34462;51.368;12.364;2023-04-06T10:46:10;20061.78;;;-141.84;33.15
15260;BME280;34462;51.368;12.364;2023-04-06T10:48:40;20027.25;;;-141.84;34.56
15260;BME280;34462;51.368;12.364;2023-04-06T10:51:11;20021.16;;;-141.84;33.67
15260;BME280;34462;51.368;12.364;2023-04-06T10:53:42;20025.22;;;-141.84;34.77
15260;BME280;34462;51.368;12.364;2023-04-06T10:56:15;20055.69;;;-141.84;34.11
15260;BME280;34462;51.368;12.364;2023-04-06T10:58:47;20033.34;;;-141.84;34.64
15260;BME280;34462;51.368;12.364;2023-04-06T11:01:16;20025.22;;;-141.84;34.40
15260;BME280;34462;51.368;12.364;2023-04-06T11:03:46;20045.53;;;-141.84;34.46
15260;BME280;34462;51.368;12.364;2023-04-06T11:06:22;20057.72;;;-141.84;34.37
15260;BME280;34462;51.368;12.364;2023-04-06T11:08:51;20106.50;;;-141.84;34.40
15260;BME280;34462;51.368;12.364;2023-04-06T11:11:24;20039.44;;;-141.84;34.51
15260;BME280;34462;51.368;12.364;2023-04-06T11:13:56;20013.00;;;-141.84;35.03
15260;BME280;34462;51.368;12.364;2023-04-06T11:16:26;19980.50;;;-141.84;35.36
15260;BME280;34462;51.368;12.364;2023-04-06T11:18:57;20008.94;;;-141.84;35.01
15260;BME280;34462;51.368;12.364;2023-04-06T11:21:34;20067.88;;;-141.84;34.53
15260;BME280;34462;51.368;12.364;2023-04-06T11:24:11;20094.31;;;-141.84;34.32
15260;BME280;34462;51.368;12.364;2023-04-06T11:26:44;20110.56;;;-141.84;34.25
15260;BME280;34462;51.368;12.364;2023-04-06T11:29:13;20100.41;;;-141.84;33.67
15260;BME280;34462;51.368;12.364;2023-04-06T11:31:45;20128.88;;;-141.84;33.95
15260;BME280;34462;51.368;12.364;2023-04-06T11:34:17;20175.63;;;-141.84;33.83
15260;BME280;34462;51.368;12.364;2023-04-06T11:36:49;20191.88;;;-141.84;32.88
15260;BME280;34462;51.368;12.364;2023-04-06T11:39:23;20191.88;;;-141.84;33.23
15260;BME280;34462;51.368;12.364;2023-04-06T11:41:57;20204.06;;;-141.84;33.28
15260;BME280;34462;51.368;12.364;2023-04-06T11:44:32;20220.34;;;-141.84;33.35
15260;BME280;34462;51.368;12.364;2023-04-06T11:47:02;20193.91;;;-141.84;32.69
15260;BME280;34462;51.368;12.364;2023-04-06T11:49:32;20122.78;;;-141.84;33.25
15260;BME280;34462;51.368;12.364;2023-04-06T11:52:01;20076.03;;;-141.84;33.69
15260;BME280;34462;51.368;12.364;2023-04-06T11:54:32;20078.06;;;-141.84;34.17
15260;BME280;34462;51.368;12.364;2023-04-06T11:57:03;20104.47;;;-141.84;34.08
15260;BME280;34462;51.368;12.364;2023-04-06T11:59:32;20122.78;;;-141.84;33.61
15260;BME280;34462;51.368;12.364;2023-04-06T12:02:02;20141.06;;;-141.84;33.81
15260;BME280;34462;51.368;12.364;2023-04-06T12:04:31;20141.06;;;-141.84;33.37
15260;BME280;34462;51.368;12.364;2023-04-06T12:06:59;20159.34;;;-141.84;33.35
15260;BME280;34462;51.368;12.364;2023-04-06T12:09:28;20185.78;;;-141.84;33.14
15260;BME280;34462;51.368;12.364;2023-04-06T12:11:56;20204.06;;;-141.84;33.37
15260;BME280;34462;51.368;12.364;2023-04-06T12:14:26;20208.13;;;-141.84;32.74
15260;BME280;34462;51.368;12.364;2023-04-06T12:16:54;20216.25;;;-141.84;32.47
15260;BME280;34462;51.368;12.364;2023-04-06T12:19:23;20195.94;;;-141.84;32.58
15260;BME280;34462;51.368;12.364;2023-04-06T12:21:52;20228.47;;;-141.84;32.84
15260;BME280;34462;51.368;12.364;2023-04-06T12:24:21;20224.41;;;-141.84;32.68
15260;BME280;34462;51.368;12.364;2023-04-06T12:26:50;20244.72;;;-141.84;32.63
15260;BME280;34462;51.368;12.364;2023-04-06T12:29:34;20216.25;;;-141.84;32.51
15260;BME280;34462;51.368;12.364;2023-04-06T12:32:02;20250.81;;;-141.84;32.12
15260;BME280;34462;51.368;12.364;2023-04-06T12:34:30;20242.69;;;-141.84;31.81
15260;BME280;34462;51.368;12.364;2023-04-06T12:36:59;20212.19;;;-141.84;32.05
15260;BME280;34462;51.368;12.364;2023-04-06T12:39:28;20183.75;;;-141.84;32.44
15260;BME280;34462;51.368;12.364;2023-04-06T12:41:57;20208.13;;;-141.84;32.52